Lake Center, Mississippi
Current Conditions -  °F | °C
As of 9:15 AM on Monday 24 Nov 2014 (Local Time) from KUOX Reporting Station
Scattered Clouds Scattered Clouds  
Wind Chill: 50°   Ceiling: Unl
Heat Index: 50°   Visibility: 10mi
Dew Point: 36°   Wind: 13mph
Humidity: 58%   Direction: 280°W
Pressure: 29.88"   Gusts: 26mph
Location:  34.5725°N, 89.3417°W
Report Text: KUOX 241515Z AUTO 28011G23KT 10SM SCT025 10/02 A2988 RMK AO2 PWINO PNO
Loading
Personal Weather Stations






























Interactive Weather Map New forecast layout! Learn more

10-Day Weather Forecast

Advertisements
Track Severe Weather on mobile